createdAt,value
2018-08-13T00:01:26.606Z,0.97
2018-08-13T00:03:54.667Z,1.30
2018-08-13T00:06:22.804Z,1.30
2018-08-13T00:08:50.852Z,1.53
2018-08-13T00:11:18.900Z,1.67
2018-08-13T00:13:46.949Z,1.50
2018-08-13T00:16:14.996Z,1.50
2018-08-13T00:18:43.036Z,1.40
2018-08-13T00:21:11.099Z,1.87
2018-08-13T00:23:39.165Z,1.70
2018-08-13T00:26:07.215Z,1.60
2018-08-13T00:28:35.268Z,1.37
2018-08-13T00:31:03.326Z,1.30
2018-08-13T00:33:31.372Z,1.30
2018-08-13T00:35:59.435Z,1.30
2018-08-13T00:38:27.471Z,1.50
2018-08-13T00:40:55.520Z,1.40
2018-08-13T00:43:23.561Z,1.30
2018-08-13T00:45:51.632Z,1.30
2018-08-13T00:48:19.680Z,1.10
2018-08-13T00:50:47.728Z,1.30
2018-08-13T00:53:15.782Z,1.40
2018-08-13T00:55:43.841Z,1.20
2018-08-13T00:58:11.969Z,1.23
2018-08-13T01:00:40.025Z,1.00
2018-08-13T01:03:08.143Z,1.10
2018-08-13T01:05:36.200Z,0.93
2018-08-13T01:08:04.264Z,1.30
2018-08-13T01:10:32.456Z,1.20
2018-08-13T01:13:00.508Z,1.23
2018-08-13T01:15:28.567Z,1.30
2018-08-13T01:17:56.608Z,1.17
2018-08-13T01:20:24.652Z,1.27
2018-08-13T01:22:52.780Z,1.40
2018-08-13T01:25:21.372Z,1.30
2018-08-13T01:27:49.420Z,1.47
2018-08-13T01:30:18.528Z,1.50
2018-08-13T01:32:46.595Z,1.40
2018-08-13T01:35:14.646Z,1.30
2018-08-13T01:37:42.692Z,1.50
2018-08-13T01:40:11.420Z,1.30
2018-08-13T01:42:39.484Z,1.47
2018-08-13T01:45:08.974Z,1.50
2018-08-13T01:47:37.149Z,1.63
2018-08-13T01:50:06.974Z,1.20
2018-08-13T01:52:35.025Z,1.20
2018-08-13T01:55:03.122Z,1.40
2018-08-13T01:57:31.176Z,1.30
2018-08-13T01:59:59.256Z,1.63
2018-08-13T02:02:27.293Z,1.47
2018-08-13T02:04:55.336Z,1.50
2018-08-13T02:07:23.451Z,1.53
2018-08-13T02:09:51.595Z,1.50
2018-08-13T02:12:19.697Z,1.80
2018-08-13T02:14:47.775Z,1.80
2018-08-13T02:17:15.821Z,1.77
2018-08-13T02:19:43.910Z,1.90
2018-08-13T02:22:11.959Z,1.80
2018-08-13T02:24:40.058Z,2.13
2018-08-13T02:27:08.139Z,1.97
2018-08-13T02:29:36.184Z,1.67
2018-08-13T02:32:04.261Z,1.63
2018-08-13T02:34:32.300Z,1.93
2018-08-13T02:37:00.343Z,1.80
2018-08-13T02:39:28.379Z,1.93
2018-08-13T02:41:56.410Z,2.70
2018-08-13T02:44:24.455Z,3.40
2018-08-13T02:46:52.590Z,2.60
2018-08-13T02:49:20.616Z,2.90
2018-08-13T02:51:48.653Z,2.80
2018-08-13T02:54:16.682Z,2.90
2018-08-13T02:56:44.727Z,2.83
2018-08-13T02:59:12.753Z,2.47
2018-08-13T03:01:41.465Z,2.23
2018-08-13T03:04:09.600Z,2.50
2018-08-13T03:06:37.677Z,2.10
2018-08-13T03:09:08.731Z,2.40
2018-08-13T03:11:36.787Z,2.07
2018-08-13T03:14:05.384Z,2.27
2018-08-13T03:16:33.429Z,2.50
2018-08-13T03:19:01.473Z,2.10
2018-08-13T03:21:29.516Z,2.37
2018-08-13T03:23:57.538Z,2.33
2018-08-13T03:26:25.575Z,2.10
2018-08-13T03:28:53.679Z,2.20
2018-08-13T03:31:21.714Z,2.23
2018-08-13T03:33:49.825Z,2.00
2018-08-13T03:36:17.885Z,2.10
2018-08-13T03:38:45.918Z,1.83
2018-08-13T03:41:13.968Z,1.83
2018-08-13T03:43:41.995Z,2.03
2018-08-13T03:46:10.046Z,1.90
2018-08-13T03:48:38.065Z,1.60
2018-08-13T03:51:06.095Z,2.40
2018-08-13T03:53:34.126Z,1.90
2018-08-13T03:56:02.199Z,1.70
2018-08-13T03:58:30.334Z,1.83
2018-08-13T04:00:58.380Z,2.20
2018-08-13T04:03:26.423Z,1.80
2018-08-13T04:05:54.545Z,1.77
2018-08-13T04:08:22.586Z,2.00
2018-08-13T04:10:50.635Z,1.90
2018-08-13T04:13:18.665Z,1.80
2018-08-13T04:15:46.707Z,2.00
2018-08-13T04:18:14.749Z,1.67
2018-08-13T04:20:42.803Z,1.80
2018-08-13T04:23:10.834Z,1.50
2018-08-13T04:25:38.893Z,1.60
2018-08-13T04:28:06.938Z,1.47
2018-08-13T04:30:35.043Z,1.83
2018-08-13T04:33:03.109Z,1.60
2018-08-13T04:35:31.168Z,1.70
2018-08-13T04:37:59.201Z,2.07
2018-08-13T04:40:27.230Z,1.60
2018-08-13T04:42:55.280Z,1.70
2018-08-13T04:45:23.447Z,1.50
2018-08-13T04:47:53.489Z,1.30
2018-08-13T04:50:21.648Z,1.20
2018-08-13T04:52:50.061Z,1.50
2018-08-13T04:55:18.709Z,1.40
2018-08-13T04:57:46.775Z,1.20
2018-08-13T05:00:14.817Z,1.23
2018-08-13T05:02:42.863Z,1.20
2018-08-13T05:05:11.717Z,1.40
2018-08-13T05:07:39.896Z,1.33
2018-08-13T05:10:09.188Z,1.67
2018-08-13T05:12:37.251Z,1.20
2018-08-13T05:15:06.147Z,1.20
2018-08-13T05:17:34.318Z,1.53
2018-08-13T05:20:02.353Z,1.17
2018-08-13T05:22:30.410Z,1.10
2018-08-13T05:24:58.436Z,1.20
2018-08-13T05:27:26.470Z,1.20
2018-08-13T05:29:54.525Z,1.30
2018-08-13T05:32:22.546Z,1.10
2018-08-13T05:34:50.583Z,1.40
2018-08-13T05:37:18.627Z,1.30
2018-08-13T05:39:46.667Z,1.10
2018-08-13T05:42:14.757Z,1.33
2018-08-13T05:44:42.899Z,1.40
2018-08-13T05:47:11.013Z,2.00
2018-08-13T05:49:39.041Z,1.50
2018-08-13T05:52:07.114Z,2.00
2018-08-13T05:54:35.149Z,1.13
2018-08-13T05:57:03.188Z,1.17
2018-08-13T05:59:31.233Z,1.20
2018-08-13T06:01:59.280Z,1.37
2018-08-13T06:04:27.349Z,1.60
2018-08-13T06:06:55.382Z,1.40
2018-08-13T06:09:23.507Z,1.50
2018-08-13T06:11:51.531Z,1.90
2018-08-13T06:14:19.581Z,1.47
2018-08-13T06:16:47.620Z,1.70
2018-08-13T06:19:15.657Z,1.37
2018-08-13T06:21:43.719Z,1.57
2018-08-13T06:24:11.772Z,1.27
2018-08-13T06:26:39.881Z,1.30
2018-08-13T06:29:08.067Z,1.50
2018-08-13T06:31:36.104Z,1.30
2018-08-13T06:34:04.220Z,1.40
2018-08-13T06:36:32.246Z,1.40
2018-08-13T06:39:00.288Z,1.40
2018-08-13T06:41:28.367Z,1.17
2018-08-13T06:43:56.479Z,1.40
2018-08-13T06:46:24.566Z,1.17
2018-08-13T06:48:52.589Z,1.20
2018-08-13T06:51:20.693Z,1.17
2018-08-13T06:53:48.776Z,1.50
2018-08-13T06:56:16.820Z,1.40
2018-08-13T06:58:44.841Z,1.40
2018-08-13T07:01:12.901Z,1.43
2018-08-13T07:03:40.951Z,1.27
2018-08-13T07:06:08.991Z,1.50
2018-08-13T07:08:37.081Z,1.50
2018-08-13T07:11:09.965Z,1.40
2018-08-13T07:13:38.037Z,1.30
2018-08-13T07:16:06.146Z,1.40
2018-08-13T07:18:34.187Z,1.37
2018-08-13T07:21:02.223Z,1.20
2018-08-13T07:23:30.262Z,1.27
2018-08-13T07:25:58.295Z,1.60
2018-08-13T07:28:26.354Z,1.63
2018-08-13T07:30:54.445Z,1.60
2018-08-13T07:33:22.609Z,1.30
2018-08-13T07:35:50.603Z,1.50
2018-08-13T07:38:18.637Z,1.53
2018-08-13T07:40:46.675Z,1.73
2018-08-13T07:43:14.899Z,1.67
2018-08-13T07:45:42.988Z,1.90
2018-08-13T07:48:10.999Z,1.70
2018-08-13T07:50:39.044Z,1.63
2018-08-13T07:53:07.194Z,1.47
2018-08-13T07:55:35.225Z,1.43
2018-08-13T07:58:03.262Z,2.00
2018-08-13T08:00:31.377Z,2.23
2018-08-13T08:02:59.464Z,1.90
2018-08-13T08:05:27.503Z,1.93
2018-08-13T08:07:55.555Z,1.70
2018-08-13T08:10:23.578Z,1.90
2018-08-13T08:12:51.615Z,1.80
2018-08-13T08:15:20.127Z,1.90
2018-08-13T08:17:48.157Z,1.53
2018-08-13T08:20:16.196Z,1.87
2018-08-13T08:22:44.229Z,1.70
2018-08-13T08:25:15.775Z,1.70
2018-08-13T08:27:44.260Z,1.70
2018-08-13T08:30:12.633Z,1.47
2018-08-13T08:32:40.676Z,1.50
2018-08-13T08:35:10.731Z,1.50
2018-08-13T08:37:39.113Z,2.27
2018-08-13T08:40:09.033Z,1.60
2018-08-13T08:42:37.281Z,1.60
2018-08-13T08:45:08.054Z,2.10
2018-08-13T08:47:36.205Z,1.97
2018-08-13T08:50:04.737Z,1.50
2018-08-13T08:52:32.813Z,1.40
2018-08-13T08:55:00.923Z,1.60
2018-08-13T08:57:29.092Z,1.50
2018-08-13T08:59:57.133Z,2.43
2018-08-13T09:02:25.157Z,1.80
2018-08-13T09:04:53.206Z,1.60
2018-08-13T09:07:21.235Z,1.80
2018-08-13T09:09:49.283Z,1.50
2018-08-13T09:12:17.321Z,1.50
2018-08-13T09:14:45.387Z,1.43
2018-08-13T09:17:13.464Z,1.60
2018-08-13T09:19:52.975Z,1.53
2018-08-13T09:22:32.629Z,1.40
2018-08-13T09:25:12.361Z,1.50
2018-08-13T09:27:51.861Z,1.83
2018-08-13T09:31:33.547Z,1.60
2018-08-13T09:34:15.413Z,1.40
2018-08-13T09:36:43.591Z,1.57
2018-08-13T09:39:11.662Z,1.47
2018-08-13T09:41:39.934Z,1.67
2018-08-13T09:44:07.993Z,2.00
2018-08-13T09:46:36.039Z,2.13
2018-08-13T09:49:04.340Z,2.00
2018-08-13T09:51:32.414Z,2.10
2018-08-13T09:54:00.493Z,1.97
2018-08-13T09:56:28.542Z,2.30
2018-08-13T09:58:56.572Z,2.07
2018-08-13T10:01:24.703Z,1.80
2018-08-13T10:03:52.726Z,1.80
2018-08-13T10:06:20.746Z,2.03
2018-08-13T10:08:48.789Z,1.60
2018-08-13T10:11:16.846Z,1.73
2018-08-13T10:13:44.879Z,1.60
2018-08-13T10:16:12.931Z,1.50
2018-08-13T10:18:40.997Z,1.57
2018-08-13T10:21:09.021Z,1.43
2018-08-13T10:23:37.062Z,1.50
2018-08-13T10:26:05.097Z,1.60
2018-08-13T10:28:33.132Z,1.23
2018-08-13T10:31:01.180Z,1.50
2018-08-13T10:33:29.201Z,1.40
2018-08-13T10:35:57.238Z,1.20
2018-08-13T10:38:25.353Z,1.20
2018-08-13T10:40:53.406Z,1.30
2018-08-13T10:43:21.620Z,1.50
2018-08-13T10:45:49.666Z,1.83
2018-08-13T10:48:17.693Z,1.37
2018-08-13T10:50:45.917Z,1.43
2018-08-13T10:53:13.937Z,1.40
2018-08-13T10:55:41.999Z,1.50
2018-08-13T10:58:10.048Z,1.50
2018-08-13T11:00:38.096Z,1.50
2018-08-13T11:03:06.153Z,1.47
2018-08-13T11:05:34.198Z,1.40
2018-08-13T11:08:02.341Z,1.43
2018-08-13T11:10:30.474Z,1.50
2018-08-13T11:12:58.604Z,1.50
2018-08-13T11:15:26.639Z,1.10
2018-08-13T11:17:54.669Z,1.13
2018-08-13T11:20:22.713Z,1.20
2018-08-13T11:22:50.836Z,1.10
2018-08-13T11:25:18.925Z,1.20
2018-08-13T11:27:46.912Z,1.10
2018-08-13T11:30:16.170Z,1.23
2018-08-13T11:32:44.338Z,1.37
2018-08-13T11:35:13.176Z,1.20
2018-08-13T11:37:41.302Z,1.03
2018-08-13T11:40:13.781Z,1.10
2018-08-13T11:42:41.987Z,1.00
2018-08-13T11:45:10.236Z,0.90
2018-08-13T11:47:39.027Z,1.10
2018-08-13T11:50:13.333Z,1.00
2018-08-13T11:52:41.602Z,1.20
2018-08-13T11:55:09.686Z,1.17
2018-08-13T11:57:37.766Z,1.10
2018-08-13T12:00:07.947Z,1.13
2018-08-13T12:02:36.238Z,1.10
2018-08-13T12:05:05.939Z,1.10
2018-08-13T12:07:33.978Z,1.13
2018-08-13T12:10:02.082Z,1.50
2018-08-13T12:12:30.161Z,1.30
2018-08-13T12:14:58.191Z,1.40
2018-08-13T12:17:26.248Z,1.50
2018-08-13T12:19:54.373Z,1.30
2018-08-13T12:22:22.401Z,1.40
2018-08-13T12:24:50.519Z,1.40
2018-08-13T12:27:18.564Z,1.17
2018-08-13T12:29:46.626Z,1.30
2018-08-13T12:32:14.947Z,1.20
2018-08-13T12:34:42.974Z,1.40
2018-08-13T12:37:11.039Z,1.40
2018-08-13T12:39:39.771Z,1.30
2018-08-13T12:42:08.859Z,1.30
2018-08-13T12:44:37.125Z,1.50
2018-08-13T12:47:06.275Z,1.13
2018-08-13T12:49:34.302Z,1.70
2018-08-13T12:52:02.347Z,1.43
2018-08-13T12:54:30.397Z,1.30
2018-08-13T12:56:58.544Z,1.50
2018-08-13T12:59:26.574Z,1.40
2018-08-13T13:01:54.623Z,1.50
2018-08-13T13:04:22.663Z,1.23
2018-08-13T13:06:50.693Z,1.60
2018-08-13T13:09:18.757Z,1.47
2018-08-13T13:11:47.216Z,1.50
2018-08-13T13:14:15.252Z,1.60
2018-08-13T13:16:43.291Z,1.50
2018-08-13T13:19:11.337Z,1.40
2018-08-13T13:21:39.418Z,1.23
2018-08-13T13:24:07.463Z,1.60
2018-08-13T13:26:35.937Z,1.47
2018-08-13T13:29:04.404Z,1.40
2018-08-13T13:31:32.474Z,1.40
2018-08-13T13:34:00.531Z,1.37
2018-08-13T13:36:28.554Z,1.37
2018-08-13T13:38:56.740Z,2.07
2018-08-13T13:41:24.762Z,1.37
2018-08-13T13:43:52.790Z,1.43
2018-08-13T13:46:20.860Z,1.47
2018-08-13T13:48:48.885Z,1.70
2018-08-13T13:51:17.522Z,1.60
2018-08-13T13:53:45.559Z,1.83
2018-08-13T13:56:13.624Z,1.80
2018-08-13T13:58:41.694Z,1.80
2018-08-13T14:01:09.734Z,1.83
2018-08-13T14:03:37.772Z,1.73
2018-08-13T14:06:05.833Z,2.20
2018-08-13T14:08:33.901Z,2.20
2018-08-13T14:11:01.958Z,2.20
2018-08-13T14:13:30.038Z,2.00
2018-08-13T14:15:58.109Z,2.13
2018-08-13T14:18:26.170Z,2.00
2018-08-13T14:20:54.209Z,1.90
2018-08-13T14:23:22.267Z,2.20
2018-08-13T14:25:50.290Z,2.20
2018-08-13T14:28:18.309Z,2.40
2018-08-13T14:30:46.359Z,1.93
2018-08-13T14:33:14.395Z,2.00
2018-08-13T14:35:42.465Z,2.10
2018-08-13T14:38:10.507Z,1.83
2018-08-13T14:40:38.531Z,2.20
2018-08-13T14:43:06.568Z,2.33
2018-08-13T14:45:34.613Z,1.60
2018-08-13T14:48:02.727Z,1.80
2018-08-13T14:50:30.750Z,1.90
2018-08-13T14:52:58.864Z,1.90
2018-08-13T14:55:26.914Z,1.60
2018-08-13T14:57:54.964Z,2.00
2018-08-13T15:00:26.441Z,1.57
2018-08-13T15:02:55.246Z,1.80
2018-08-13T15:05:23.277Z,1.50
2018-08-13T15:07:51.534Z,1.40
2018-08-13T15:10:24.599Z,1.70
2018-08-13T15:12:52.724Z,1.80
2018-08-13T15:15:20.703Z,1.50
2018-08-13T15:17:49.149Z,1.87
2018-08-13T15:20:18.816Z,1.90
2018-08-13T15:22:46.855Z,1.73
2018-08-13T15:25:14.897Z,2.17
2018-08-13T15:27:43.180Z,2.20
2018-08-13T15:30:13.437Z,2.53
2018-08-13T15:32:41.924Z,2.47
2018-08-13T15:35:09.938Z,2.30
2018-08-13T15:37:38.060Z,2.40
2018-08-13T15:40:07.044Z,2.20
2018-08-13T15:42:35.435Z,2.60
2018-08-13T15:45:03.886Z,2.50
2018-08-13T15:47:31.918Z,2.10
2018-08-13T15:49:59.952Z,2.70
2018-08-13T15:52:27.995Z,2.20
2018-08-13T15:54:56.019Z,2.87
2018-08-13T15:57:24.126Z,3.10
2018-08-13T15:59:52.154Z,2.60
2018-08-13T16:02:20.179Z,2.40
2018-08-13T16:04:48.205Z,2.40
2018-08-13T16:07:16.331Z,2.73
2018-08-13T16:09:44.401Z,2.80
2018-08-13T16:12:12.436Z,2.50
2018-08-13T16:14:40.447Z,2.30
2018-08-13T16:17:08.627Z,2.90
2018-08-13T16:19:36.657Z,2.60
2018-08-13T16:22:05.269Z,2.53
2018-08-13T16:24:33.750Z,2.57
2018-08-13T16:27:01.928Z,2.20
2018-08-13T16:29:29.981Z,2.60
2018-08-13T16:31:58.157Z,2.87
2018-08-13T16:34:26.217Z,2.50
2018-08-13T16:36:54.310Z,3.10
2018-08-13T16:39:22.381Z,2.73
2018-08-13T16:41:50.445Z,2.60
2018-08-13T16:44:18.485Z,2.47
2018-08-13T16:46:46.606Z,2.70
2018-08-13T16:49:14.644Z,2.60
2018-08-13T16:51:42.671Z,2.63
2018-08-13T16:54:10.757Z,2.60
2018-08-13T16:56:38.806Z,2.50
2018-08-13T16:59:06.803Z,2.80
2018-08-13T17:01:34.820Z,2.73
2018-08-13T17:04:02.867Z,2.63
2018-08-13T17:06:30.904Z,2.50
2018-08-13T17:08:58.936Z,2.87
2018-08-13T17:11:31.223Z,2.87
2018-08-13T17:13:59.329Z,2.97
2018-08-13T17:16:27.293Z,2.57
2018-08-13T17:18:55.419Z,2.90
2018-08-13T17:21:23.479Z,2.73
2018-08-13T17:23:51.542Z,2.77
2018-08-13T17:26:19.565Z,2.80
2018-08-13T17:28:47.696Z,2.40
2018-08-13T17:31:15.702Z,2.80
2018-08-13T17:33:43.837Z,2.60
2018-08-13T17:36:11.851Z,2.67
2018-08-13T17:38:39.907Z,2.60
2018-08-13T17:41:08.305Z,2.70
2018-08-13T17:43:36.479Z,2.73
2018-08-13T17:46:04.595Z,2.60
2018-08-13T17:48:32.643Z,2.40
2018-08-13T17:51:00.661Z,2.70
2018-08-13T17:53:28.690Z,2.40
2018-08-13T17:55:57.066Z,2.60
2018-08-13T17:58:25.143Z,2.70
2018-08-13T18:00:53.170Z,2.57
2018-08-13T18:03:21.217Z,2.53
2018-08-13T18:05:49.239Z,2.70
2018-08-13T18:08:17.379Z,2.57
2018-08-13T18:10:45.497Z,2.30
2018-08-13T18:13:13.565Z,2.70
2018-08-13T18:15:41.603Z,2.70
2018-08-13T18:18:09.696Z,2.60
2018-08-13T18:20:37.739Z,2.20
2018-08-13T18:23:05.795Z,2.43
2018-08-13T18:25:33.830Z,2.50
2018-08-13T18:28:01.893Z,2.70
2018-08-13T18:30:30.115Z,2.47
2018-08-13T18:32:58.129Z,2.50
2018-08-13T18:35:26.207Z,2.43
2018-08-13T18:37:54.237Z,2.47
2018-08-13T18:40:25.527Z,2.43
2018-08-13T18:42:53.554Z,2.50
2018-08-13T18:45:21.601Z,2.60
2018-08-13T18:47:50.021Z,2.70
2018-08-13T18:50:19.275Z,2.60
2018-08-13T18:52:47.411Z,2.70
2018-08-13T18:55:16.767Z,2.53
2018-08-13T18:57:45.182Z,2.37
2018-08-13T19:00:16.691Z,2.33
2018-08-13T19:02:44.808Z,2.53
2018-08-13T19:05:14.230Z,2.50
2018-08-13T19:07:43.155Z,2.40
2018-08-13T19:10:12.714Z,2.20
2018-08-13T19:12:40.893Z,2.20
2018-08-13T19:15:14.315Z,2.10
2018-08-13T19:17:42.346Z,2.40
2018-08-13T19:20:11.876Z,2.00
2018-08-13T19:22:40.038Z,1.80
2018-08-13T19:25:11.502Z,1.80
2018-08-13T19:27:39.619Z,1.50
2018-08-13T19:30:08.724Z,2.00
2018-08-13T19:32:37.166Z,1.40
2018-08-13T19:35:06.352Z,1.80
2018-08-13T19:37:34.419Z,1.50
2018-08-13T19:40:02.476Z,1.27
2018-08-13T19:42:30.505Z,1.40
2018-08-13T19:44:58.564Z,1.10
2018-08-13T19:47:26.595Z,1.27
2018-08-13T19:49:54.690Z,1.30
2018-08-13T19:52:22.712Z,1.23
2018-08-13T19:54:50.815Z,1.13
2018-08-13T19:57:18.862Z,1.20
2018-08-13T19:59:46.911Z,1.20
2018-08-13T20:02:14.944Z,1.23
2018-08-13T20:04:42.983Z,1.10
2018-08-13T20:07:11.033Z,1.20
2018-08-13T20:09:39.105Z,1.23
2018-08-13T20:12:07.137Z,1.40
2018-08-13T20:14:35.175Z,1.30
2018-08-13T20:17:03.206Z,1.57
2018-08-13T20:19:31.314Z,1.40
2018-08-13T20:21:59.322Z,1.57
2018-08-13T20:24:27.363Z,1.33
2018-08-13T20:26:55.398Z,1.50
2018-08-13T20:29:23.481Z,1.70
2018-08-13T20:31:51.521Z,1.53
2018-08-13T20:34:19.550Z,1.60
2018-08-13T20:36:47.586Z,1.73
2018-08-13T20:39:16.065Z,1.63
2018-08-13T20:41:44.107Z,1.60
2018-08-13T20:44:12.422Z,1.33
2018-08-13T20:46:41.307Z,1.60
2018-08-13T20:49:10.409Z,1.67
2018-08-13T20:51:38.463Z,1.63
2018-08-13T20:54:07.073Z,1.40
2018-08-13T20:56:35.231Z,1.57
2018-08-13T20:59:03.495Z,1.80
2018-08-13T21:01:31.995Z,1.63
2018-08-13T21:04:00.019Z,1.80
2018-08-13T21:06:28.055Z,1.60
2018-08-13T21:08:56.158Z,1.60
2018-08-13T21:11:24.167Z,1.90
2018-08-13T21:13:52.204Z,2.00
2018-08-13T21:16:20.256Z,1.90
2018-08-13T21:18:48.278Z,1.60
2018-08-13T21:21:16.338Z,1.70
2018-08-13T21:23:44.387Z,2.00
2018-08-13T21:26:12.447Z,1.73
2018-08-13T21:28:40.479Z,1.90
2018-08-13T21:31:08.532Z,2.30
2018-08-13T21:33:36.554Z,2.10
2018-08-13T21:36:04.622Z,2.27
2018-08-13T21:38:32.664Z,2.00
2018-08-13T21:41:00.707Z,2.00
2018-08-13T21:43:28.740Z,2.00
2018-08-13T21:45:56.781Z,2.10
2018-08-13T21:48:24.831Z,2.33
2018-08-13T21:50:52.861Z,2.00
2018-08-13T21:53:20.895Z,2.13
2018-08-13T21:55:49.038Z,2.27
2018-08-13T21:58:17.069Z,2.10
2018-08-13T22:00:50.426Z,2.43
2018-08-13T22:03:18.466Z,2.30
2018-08-13T22:05:46.489Z,2.20
2018-08-13T22:08:14.601Z,2.30
2018-08-13T22:10:42.648Z,2.40
2018-08-13T22:13:10.691Z,2.50
2018-08-13T22:15:38.808Z,2.20
2018-08-13T22:18:08.118Z,2.57
2018-08-13T22:20:36.685Z,2.43
2018-08-13T22:23:05.897Z,2.30
2018-08-13T22:25:43.373Z,2.47
2018-08-13T22:28:12.585Z,2.40
2018-08-13T22:30:40.653Z,2.57
2018-08-13T22:33:09.739Z,2.60
2018-08-13T22:35:37.809Z,2.80
2018-08-13T22:38:06.301Z,2.43
2018-08-13T22:40:34.343Z,2.40
2018-08-13T22:43:02.476Z,2.50
2018-08-13T22:45:30.513Z,2.90
2018-08-13T22:47:58.575Z,2.67
2018-08-13T22:50:26.602Z,2.70
2018-08-13T22:52:54.710Z,2.90
2018-08-13T22:55:22.752Z,2.87
2018-08-13T22:57:50.802Z,2.90
2018-08-13T23:00:19.957Z,2.80
2018-08-13T23:02:48.748Z,3.00
2018-08-13T23:05:18.270Z,3.13
2018-08-13T23:07:46.402Z,3.00
2018-08-13T23:10:16.370Z,3.37
2018-08-13T23:12:44.680Z,3.00
2018-08-13T23:15:14.212Z,2.83
2018-08-13T23:17:42.909Z,3.30
2018-08-13T23:20:13.219Z,3.47
2018-08-13T23:22:47.322Z,4.07
2018-08-13T23:25:15.507Z,3.73
2018-08-13T23:30:18.158Z,3.77
2018-08-13T23:32:48.205Z,3.60
2018-08-13T23:35:17.103Z,3.70
2018-08-13T23:37:45.147Z,3.80
2018-08-13T23:40:13.248Z,3.73
2018-08-13T23:42:41.318Z,4.33
2018-08-13T23:45:11.323Z,4.40
2018-08-13T23:47:39.382Z,4.53
2018-08-13T23:50:09.208Z,5.10
2018-08-13T23:52:37.790Z,6.03
2018-08-13T23:55:07.006Z,5.03
2018-08-13T23:57:35.079Z,5.70
